Time;durP1;ratioP1;P1;durP2;ratioP2;P2;SDS_P1;SDS_P2;PMS_P1;PMS_P2;Temp;Humidity;BMP_temperature;BMP_pressure;BME280_temperature;BME280_humidity;BME280_pressure;Samples;Min_cycle;Max_cycle;Signal;HPM_P1;HPM_P2
2023/06/11 00:02:05;;;;;;;6.32;4.65;;;;;;;20.21;57.77;94430.56;5085459;28;20561;-77
2023/06/11 00:04:34;;;;;;;6.03;4.78;;;;;;;20.21;57.39;94438.19;5084806;28;20497;-78
2023/06/11 00:07:00;;;;;;;8.05;4.65;;;;;;;20.20;57.40;94431.09;5068825;28;20190;-77
2023/06/11 00:09:26;;;;;;;5.10;4.60;;;;;;;20.19;57.07;94437.94;5084638;28;20089;-77
2023/06/11 00:11:53;;;;;;;6.65;4.20;;;;;;;20.15;57.25;94435.41;5085391;28;20115;-77
2023/06/11 00:14:20;;;;;;;5.63;4.55;;;;;;;20.14;56.84;94431.88;5084684;28;20024;-77
2023/06/11 00:16:45;;;;;;;6.68;4.28;;;;;;;20.09;57.43;94426.31;5084799;28;20406;-77
2023/06/11 00:19:11;;;;;;;8.05;4.38;;;;;;;20.08;57.44;94438.75;5085998;28;20025;-77
2023/06/11 00:21:40;;;;;;;5.97;4.60;;;;;;;20.02;57.16;94430.38;5086236;28;20056;-77
2023/06/11 00:24:06;;;;;;;6.20;4.82;;;;;;;19.97;57.28;94433.19;5085190;28;20070;-77
2023/06/11 00:26:33;;;;;;;5.88;4.57;;;;;;;19.96;58.01;94429.63;5085736;28;20078;-77
2023/06/11 00:28:58;;;;;;;6.07;5.00;;;;;;;19.94;57.77;94434.19;5085200;28;20020;-76
2023/06/11 00:31:23;;;;;;;7.28;4.82;;;;;;;19.92;58.19;94436.75;5085645;28;20422;-76
2023/06/11 00:33:49;;;;;;;7.35;4.80;;;;;;;19.88;58.33;94437.75;5085893;28;20804;-76
2023/06/11 00:36:14;;;;;;;5.55;4.65;;;;;;;19.85;58.43;94432.44;5085707;28;20016;-77
2023/06/11 00:38:41;;;;;;;6.10;5.15;;;;;;;19.82;58.47;94433.47;5067392;28;20031;-76
2023/06/11 00:41:06;;;;;;;6.45;4.78;;;;;;;19.81;58.73;94437.53;5084901;28;20039;-76
2023/06/11 00:43:32;;;;;;;7.05;4.85;;;;;;;19.77;58.65;94426.63;5066933;28;20024;-76
2023/06/11 00:46:02;;;;;;;6.82;5.32;;;;;;;19.75;59.19;94428.41;5085790;28;20106;-76
2023/06/11 00:48:27;;;;;;;6.60;4.63;;;;;;;19.70;59.50;94432.72;5088262;28;20036;-77
2023/06/11 00:50:53;;;;;;;6.60;5.10;;;;;;;19.70;59.45;94426.38;5086272;28;20035;-76
2023/06/11 00:53:21;;;;;;;11.35;5.43;;;;;;;19.66;59.76;94437.78;5083921;28;20403;-77
2023/06/11 00:55:47;;;;;;;7.60;5.15;;;;;;;19.62;59.68;94435.28;5085039;28;20108;-77
2023/06/11 00:58:14;;;;;;;6.63;4.82;;;;;;;19.57;59.69;94427.63;5093474;28;20032;-77
2023/06/11 01:00:46;;;;;;;7.60;5.30;;;;;;;19.54;60.12;94425.09;5083689;28;20542;-76
2023/06/11 01:03:17;;;;;;;6.82;5.00;;;;;;;19.52;60.08;94433.22;5084547;28;20027;-76
2023/06/11 01:05:47;;;;;;;8.30;4.95;;;;;;;19.47;60.02;94440.31;5083460;28;20160;-77
2023/06/11 01:08:13;;;;;;;8.93;5.22;;;;;;;19.45;59.88;94439.31;5083923;28;20092;-77
2023/06/11 01:10:40;;;;;;;6.78;5.30;;;;;;;19.43;60.27;94430.66;5083390;28;20583;-77
2023/06/11 01:13:05;;;;;;;8.57;5.65;;;;;;;19.46;60.03;94435.25;5083847;28;20073;-77
2023/06/11 01:15:32;;;;;;;6.63;5.45;;;;;;;19.47;59.89;94436.75;5083893;28;20044;-76
2023/06/11 01:18:18;;;;;;;6.28;5.40;;;;;;;19.45;59.81;94434.50;5083205;28;20093;-76
2023/06/11 01:20:49;;;;;;;8.40;4.97;;;;;;;19.42;59.56;94429.91;5085067;28;20034;-77
2023/06/11 01:23:41;;;;;;;7.20;4.75;;;;;;;19.42;59.69;94434.72;5083490;28;20055;-77
2023/06/11 01:26:25;;;;;;;5.70;4.95;;;;;;;19.41;59.34;94433.22;5083733;28;20571;-77
2023/06/11 01:28:55;;;;;;;5.93;5.03;;;;;;;19.40;59.49;94431.69;5085340;28;20028;-76
2023/06/11 01:31:21;;;;;;;7.05;5.03;;;;;;;19.39;59.57;94427.41;5082548;28;20029;-77
2023/06/11 01:33:46;;;;;;;7.43;5.22;;;;;;;19.41;59.57;94431.19;5083334;28;20359;-76
2023/06/11 01:36:14;;;;;;;8.40;5.40;;;;;;;19.39;58.93;94419.03;5083631;28;20016;-77
2023/06/11 01:38:44;;;;;;;6.43;5.20;;;;;;;19.38;59.19;94429.41;5066662;28;20036;-77
2023/06/11 01:41:13;;;;;;;9.70;5.47;;;;;;;19.37;59.16;94428.63;5083830;28;20024;-76
2023/06/11 01:43:38;;;;;;;7.63;5.53;;;;;;;19.34;59.58;94429.66;5088777;28;20179;-77
2023/06/11 01:46:05;;;;;;;8.65;5.05;;;;;;;19.34;59.36;94435.25;5084075;28;20024;-77
2023/06/11 01:48:30;;;;;;;7.05;5.45;;;;;;;19.33;59.39;94428.16;5082727;28;20105;-76
2023/06/11 01:50:55;;;;;;;7.32;5.05;;;;;;;19.31;59.62;94424.34;5084897;28;20082;-77
2023/06/11 01:53:21;;;;;;;7.13;5.28;;;;;;;19.30;59.72;94433.97;5084775;28;20463;-77
2023/06/11 01:55:47;;;;;;;8.55;5.25;;;;;;;19.32;59.66;94439.78;5083465;28;20028;-77
2023/06/11 01:58:12;;;;;;;7.10;5.70;;;;;;;19.30;59.89;94428.41;5084715;28;20032;-77
2023/06/11 02:00:37;;;;;;;6.32;5.25;;;;;;;19.25;59.64;94429.16;5085841;28;20030;-77
2023/06/11 02:03:05;;;;;;;8.18;4.78;;;;;;;19.33;59.23;94438.53;5091244;28;20051;-77
2023/06/11 02:05:31;;;;;;;5.93;5.20;;;;;;;19.34;59.20;94440.06;5084279;28;20087;-76
2023/06/11 02:07:56;;;;;;;7.07;4.38;;;;;;;19.31;58.74;94435.50;5067279;28;20124;-77
2023/06/11 02:10:21;;;;;;;10.15;4.68;;;;;;;19.30;58.62;94440.31;5082998;28;20512;-77
2023/06/11 02:12:47;;;;;;;5.53;4.30;;;;;;;19.30;58.34;94442.34;5083176;28;20025;-76
2023/06/11 02:15:12;;;;;;;7.10;4.97;;;;;;;19.32;58.39;94446.13;5083225;28;20031;-77
2023/06/11 02:17:38;;;;;;;6.05;4.50;;;;;;;19.33;58.44;94444.88;5083108;28;20124;-77
2023/06/11 02:20:08;;;;;;;5.40;4.38;;;;;;;19.33;58.46;94439.31;5084748;28;20030;-76
2023/06/11 02:22:33;;;;;;;6.35;4.05;;;;;;;19.32;58.55;94434.97;5084713;28;20089;-77
2023/06/11 02:24:59;;;;;;;7.15;5.00;;;;;;;19.34;58.61;94428.91;5083615;28;20032;-76
2023/06/11 02:27:24;;;;;;;9.75;5.57;;;;;;;19.34;58.21;94437.28;5082915;28;20016;-76
2023/06/11 02:29:50;;;;;;;6.15;4.68;;;;;;;19.34;58.31;94437.28;5084559;28;20032;-76
2023/06/11 02:32:15;;;;;;;5.07;4.47;;;;;;;19.35;58.93;94439.53;5084275;28;20028;-77
2023/06/11 02:34:41;;;;;;;6.97;4.38;;;;;;;19.36;58.77;94434.72;5084069;28;20024;-77
2023/06/11 02:37:07;;;;;;;6.75;4.68;;;;;;;19.33;58.82;94436.50;5086489;28;20524;-77
2023/06/11 02:39:33;;;;;;;6.25;4.75;;;;;;;19.33;58.88;94438.53;5083322;28;20020;-77
2023/06/11 02:41:58;;;;;;;6.90;4.72;;;;;;;19.33;58.84;94438.53;5084558;28;20521;-76
2023/06/11 02:44:24;;;;;;;7.38;5.05;;;;;;;19.32;59.06;94437.75;5087974;28;20402;-76
2023/06/11 02:46:49;;;;;;;8.25;5.32;;;;;;;19.31;59.11;94439.03;5087917;28;20059;-77
2023/06/11 02:49:15;;;;;;;6.97;5.47;;;;;;;19.27;59.16;94430.19;5087761;28;20020;-76
2023/06/11 02:51:40;;;;;;;6.65;4.90;;;;;;;19.28;59.11;94430.94;5087864;28;20869;-76
2023/06/11 02:54:06;;;;;;;6.90;4.75;;;;;;;19.27;58.84;94429.44;5086395;28;20038;-77
2023/06/11 02:56:32;;;;;;;6.82;5.60;;;;;;;19.25;58.94;94443.84;5086827;28;20039;-77
2023/06/11 02:58:57;;;;;;;8.77;5.00;;;;;;;19.24;59.50;94438.78;5087799;28;20028;-76
2023/06/11 03:01:23;;;;;;;6.90;5.03;;;;;;;19.23;59.39;94438.03;5087783;28;20111;-76
2023/06/11 03:03:48;;;;;;;11.20;5.80;;;;;;;19.26;59.34;94444.59;5086339;28;20467;-76
2023/06/11 03:06:14;;;;;;;6.80;5.25;;;;;;;19.24;59.18;94436.00;5089896;28;20047;-77
2023/06/11 03:08:39;;;;;;;7.78;5.15;;;;;;;19.24;59.17;94442.31;5091323;28;20336;-76
2023/06/11 03:11:04;;;;;;;10.60;5.05;;;;;;;19.26;59.18;94439.03;5087494;28;20027;-76
2023/06/11 03:13:30;;;;;;;5.90;5.30;;;;;;;19.28;59.25;94444.88;5086078;28;20099;-76
2023/06/11 03:15:55;;;;;;;7.18;5.30;;;;;;;19.28;59.39;94445.63;5087275;28;20557;-76
2023/06/11 03:18:21;;;;;;;6.13;5.28;;;;;;;19.31;59.98;94447.38;5087471;28;20086;-76
2023/06/11 03:20:46;;;;;;;9.18;5.22;;;;;;;19.32;59.98;94445.34;5085838;28;20373;-77
2023/06/11 03:23:13;;;;;;;5.85;4.88;;;;;;;19.32;59.91;94442.56;5086981;28;20448;-76
2023/06/11 03:25:38;;;;;;;7.95;5.22;;;;;;;19.32;59.68;94448.91;5087615;28;20036;-76
2023/06/11 03:28:04;;;;;;;6.10;4.82;;;;;;;19.34;59.61;94445.63;5086639;28;20032;-76
2023/06/11 03:30:29;;;;;;;6.70;5.35;;;;;;;19.31;59.39;94458.53;5090774;28;20075;-77
2023/06/11 03:32:55;;;;;;;7.70;5.38;;;;;;;19.33;59.57;94460.84;5085735;28;20107;-76
2023/06/11 03:35:21;;;;;;;8.80;5.35;;;;;;;19.35;59.27;94461.09;5085604;28;20032;-76
2023/06/11 03:37:46;;;;;;;8.45;6.00;;;;;;;19.35;59.33;94470.19;5087108;28;20028;-77
2023/06/11 03:40:11;;;;;;;7.38;5.53;;;;;;;19.33;59.25;94480.34;5085185;28;20056;-76
2023/06/11 03:42:37;;;;;;;5.85;5.10;;;;;;;19.37;58.91;94473.22;5087151;28;20551;-76
2023/06/11 03:45:02;;;;;;;7.70;5.00;;;;;;;19.39;58.40;94477.56;5084666;28;20236;-75
2023/06/11 03:47:28;;;;;;;9.98;5.10;;;;;;;19.40;58.59;94470.72;5087481;28;20020;-77
2023/06/11 03:49:53;;;;;;;5.57;4.90;;;;;;;19.42;58.28;94471.72;5084708;28;20030;-77
2023/06/11 03:52:19;;;;;;;9.30;5.57;;;;;;;19.45;58.66;94469.97;5086683;28;20452;-76
2023/06/11 03:54:44;;;;;;;6.28;4.60;;;;;;;19.41;58.42;94475.78;5084453;28;20103;-77
2023/06/11 03:57:10;;;;;;;7.57;4.80;;;;;;;19.43;58.23;94476.03;5086477;28;20028;-77
2023/06/11 03:59:35;;;;;;;5.45;4.63;;;;;;;19.42;58.20;94482.13;5086340;28;20031;-77
2023/06/11 04:02:01;;;;;;;7.40;5.60;;;;;;;19.31;58.77;94478.03;5085659;28;20108;-76
2023/06/11 04:04:26;;;;;;;8.73;5.60;;;;;;;19.34;58.89;94471.47;5086849;28;20593;-77
2023/06/11 04:06:51;;;;;;;6.72;5.30;;;;;;;19.35;59.10;94477.81;5085856;28;20600;-77
2023/06/11 04:09:17;;;;;;;7.60;4.75;;;;;;;19.36;58.69;94466.16;5085618;28;20031;-77
2023/06/11 04:11:42;;;;;;;9.55;5.72;;;;;;;19.42;58.46;94473.75;5094817;28;20048;-77
2023/06/11 04:14:08;;;;;;;10.02;4.93;;;;;;;19.45;58.51;94472.75;5085048;28;20497;-76
2023/06/11 04:16:33;;;;;;;6.00;5.07;;;;;;;19.48;58.59;94471.72;5086427;28;20348;-77
2023/06/11 04:18:58;;;;;;;6.82;4.90;;;;;;;19.47;58.91;94475.78;5085913;28;20107;-77
2023/06/11 04:21:24;;;;;;;6.45;4.93;;;;;;;19.46;58.56;94474.28;5086449;28;20107;-77
2023/06/11 04:23:50;;;;;;;7.20;4.90;;;;;;;19.50;58.68;94469.97;5086083;28;20112;-77
2023/06/11 04:26:16;;;;;;;6.05;5.13;;;;;;;19.53;58.50;94470.97;5089506;28;20441;-77
2023/06/11 04:28:44;;;;;;;8.77;5.15;;;;;;;19.55;58.51;94477.53;5085925;28;20107;-77
2023/06/11 04:31:11;;;;;;;9.43;5.28;;;;;;;19.60;58.49;94471.25;5084855;28;20077;-76
2023/06/11 04:33:37;;;;;;;7.03;5.18;;;;;;;19.65;58.20;94475.31;5084573;28;20656;-77
2023/06/11 04:36:07;;;;;;;7.32;4.97;;;;;;;19.67;58.07;94474.78;5085933;28;20024;-76
2023/06/11 04:38:34;;;;;;;8.95;5.22;;;;;;;19.69;58.24;94475.81;5084691;28;20115;-78
2023/06/11 04:41:00;;;;;;;9.68;5.50;;;;;;;19.70;57.77;94468.22;5084992;28;20028;-77
2023/06/11 04:43:26;;;;;;;8.00;5.13;;;;;;;19.72;58.10;94472.00;5085938;28;20040;-76
2023/06/11 04:45:55;;;;;;;6.13;5.20;;;;;;;19.79;57.90;94473.53;5083787;28;20410;-76
2023/06/11 04:48:27;;;;;;;7.82;4.85;;;;;;;19.83;57.83;94471.97;5084056;28;20402;-76
2023/06/11 04:50:52;;;;;;;6.47;4.90;;;;;;;19.88;57.33;94468.44;5067221;28;20115;-78
2023/06/11 04:53:27;;;;;;;6.03;4.47;;;;;;;19.93;57.14;94468.94;5085107;28;20174;-78
2023/06/11 04:55:54;;;;;;;6.45;4.95;;;;;;;19.96;56.30;94471.47;5084443;28;20103;-77
2023/06/11 04:58:27;;;;;;;8.20;4.50;;;;;;;20.03;55.83;94470.19;5085401;28;20028;-77
2023/06/11 05:00:56;;;;;;;4.97;4.40;;;;;;;20.06;55.54;94469.16;5084685;28;20028;-77
2023/06/11 05:03:24;;;;;;;7.55;4.32;;;;;;;20.09;54.87;94468.16;5083578;28;20054;-77
2023/06/11 05:05:51;;;;;;;5.20;4.28;;;;;;;20.11;54.99;94466.38;5083978;28;20052;-76
2023/06/11 05:08:24;;;;;;;5.82;4.30;;;;;;;20.16;54.81;94473.22;5083848;28;20078;-76
2023/06/11 05:10:57;;;;;;;6.65;4.15;;;;;;;20.21;54.40;94475.22;5084166;28;20047;-78
2023/06/11 05:13:24;;;;;;;6.85;4.55;;;;;;;20.21;54.32;94472.44;5083919;28;20020;-76
2023/06/11 05:15:54;;;;;;;6.07;4.10;;;;;;;20.27;54.19;94475.97;5092632;28;20047;-76
2023/06/11 05:18:19;;;;;;;5.95;3.85;;;;;;;20.32;54.09;94475.19;5090779;28;20024;-76
2023/06/11 05:20:45;;;;;;;6.03;4.53;;;;;;;20.34;54.09;94477.47;5067820;28;20020;-75
2023/06/11 05:23:10;;;;;;;5.80;4.10;;;;;;;20.38;54.39;94467.56;5085075;28;20495;-76
2023/06/11 05:25:36;;;;;;;6.15;4.10;;;;;;;20.44;54.13;94475.91;5083730;28;20024;-76
2023/06/11 05:28:06;;;;;;;8.05;4.20;;;;;;;20.44;54.52;94475.91;5085405;28;20031;-75
2023/06/11 05:30:36;;;;;;;6.85;4.75;;;;;;;20.48;53.99;94481.28;5066926;28;20044;-76
2023/06/11 05:33:02;;;;;;;7.28;4.95;;;;;;;20.52;53.86;94485.31;5084892;28;20028;-76
2023/06/11 05:35:28;;;;;;;8.80;4.75;;;;;;;20.57;53.74;94489.34;5083831;28;20458;-76
2023/06/11 05:37:55;;;;;;;5.60;4.40;;;;;;;20.60;53.68;94485.53;5084659;28;20130;-75
2023/06/11 05:40:22;;;;;;;5.88;4.20;;;;;;;20.62;53.52;94488.56;5083317;28;20024;-76
2023/06/11 05:42:47;;;;;;;7.25;4.15;;;;;;;20.68;53.13;94486.50;5083450;28;20099;-76
2023/06/11 05:45:13;;;;;;;5.00;3.92;;;;;;;20.67;53.00;94485.75;5083680;28;20635;-76
2023/06/11 05:47:38;;;;;;;4.47;3.65;;;;;;;20.67;53.04;94499.72;5066565;28;20032;-75
2023/06/11 05:50:04;;;;;;;6.55;4.15;;;;;;;20.73;52.27;94485.72;5085062;28;20052;-76
2023/06/11 05:52:29;;;;;;;6.95;4.15;;;;;;;20.77;52.85;94491.81;5083433;28;20371;-75
2023/06/11 05:54:55;;;;;;;6.20;4.20;;;;;;;20.83;52.50;94498.13;5084497;28;20050;-76
2023/06/11 05:57:22;;;;;;;4.45;3.90;;;;;;;20.83;52.07;94494.59;5083295;28;20040;-77
2023/06/11 05:59:48;;;;;;;7.13;3.85;;;;;;;20.90;51.74;94489.22;5084587;28;20032;-78
2023/06/11 06:02:13;;;;;;;4.93;4.00;;;;;;;20.87;52.07;94495.84;5083502;28;20020;-77
2023/06/11 06:04:39;;;;;;;7.28;4.15;;;;;;;21.00;51.59;94492.47;5082960;28;20570;-75
2023/06/11 06:07:05;;;;;;;8.93;4.15;;;;;;;21.07;51.50;94493.94;5084835;28;20473;-77
2023/06/11 06:09:33;;;;;;;5.20;3.75;;;;;;;21.08;51.57;94493.44;5086427;28;20034;-77
2023/06/11 06:11:59;;;;;;;5.35;4.15;;;;;;;21.08;51.41;94493.44;5085642;28;20039;-76
2023/06/11 06:14:24;;;;;;;5.13;3.92;;;;;;;21.15;50.99;94481.69;5084470;28;20062;-77
2023/06/11 06:16:50;;;;;;;5.18;4.00;;;;;;;21.34;50.74;94495.84;5085651;28;20020;-77
2023/06/11 06:19:15;;;;;;;9.15;4.50;;;;;;;21.39;50.58;94495.06;5089972;28;20059;-76
2023/06/11 06:21:40;;;;;;;6.32;4.60;;;;;;;21.46;50.51;94500.09;5095886;28;20031;-77
2023/06/11 06:24:06;;;;;;;8.05;4.40;;;;;;;21.58;50.20;94488.81;5089069;28;20020;-76
2023/06/11 06:26:32;;;;;;;6.80;4.50;;;;;;;21.75;49.89;94495.03;5088773;28;20028;-77
2023/06/11 06:28:57;;;;;;;6.38;4.85;;;;;;;21.83;50.25;94489.63;5088640;28;20624;-76
2023/06/11 06:31:24;;;;;;;7.50;4.80;;;;;;;21.89;50.24;94487.53;5087308;28;20032;-77
2023/06/11 06:33:50;;;;;;;6.20;4.93;;;;;;;22.02;50.29;94487.66;5088024;28;20082;-76
2023/06/11 06:36:16;;;;;;;6.53;4.47;;;;;;;22.06;49.81;94490.19;5087300;28;20048;-77
2023/06/11 06:38:41;;;;;;;8.60;4.88;;;;;;;22.16;49.64;94492.16;5069756;28;20032;-77
2023/06/11 06:41:07;;;;;;;7.18;5.68;;;;;;;22.26;49.49;94482.13;5088165;28;20031;-76
2023/06/11 06:43:34;;;;;;;7.50;5.38;;;;;;;22.35;49.31;94481.00;5087904;28;20044;-76
2023/06/11 06:46:00;;;;;;;8.27;4.90;;;;;;;22.35;49.64;94477.44;5088550;28;20024;-77
2023/06/11 06:48:25;;;;;;;6.63;4.90;;;;;;;22.52;48.99;94487.19;5069957;28;20024;-75
2023/06/11 06:50:51;;;;;;;8.40;5.97;;;;;;;22.63;48.44;94489.09;5069792;28;20395;-77
2023/06/11 06:53:16;;;;;;;10.52;5.75;;;;;;;22.70;48.91;94484.94;5088171;28;20096;-76
2023/06/11 06:55:44;;;;;;;8.52;5.07;;;;;;;22.75;48.45;94484.88;5086184;28;20151;-75
2023/06/11 06:58:10;;;;;;;6.35;5.10;;;;;;;22.77;48.45;94482.31;5088044;28;20039;-76
2023/06/11 07:00:35;;;;;;;9.55;5.55;;;;;;;22.86;48.17;94489.59;5085996;28;20028;-76
2023/06/11 07:03:01;;;;;;;7.28;5.40;;;;;;;22.96;48.04;94479.56;5087530;28;20020;-76
2023/06/11 07:05:27;;;;;;;6.05;5.03;;;;;;;23.12;47.35;94483.44;5090515;28;20016;-76
2023/06/11 07:07:53;;;;;;;8.15;4.80;;;;;;;23.16;47.80;94483.09;5088583;28;20498;-76
2023/06/11 07:10:18;;;;;;;7.80;4.82;;;;;;;23.26;47.67;94475.81;5087741;28;20028;-76
2023/06/11 07:12:44;;;;;;;6.28;5.03;;;;;;;23.30;47.56;94477.03;5087054;28;20055;-74
2023/06/11 07:15:10;;;;;;;5.97;4.50;;;;;;;23.43;47.01;94469.97;5087748;28;20107;-76
2023/06/11 07:17:35;;;;;;;6.68;4.60;;;;;;;23.44;47.13;94477.84;5087343;28;20024;-77
2023/06/11 07:20:01;;;;;;;7.35;4.97;;;;;;;23.64;46.54;94484.22;5087429;28;20394;-76
2023/06/11 07:22:26;;;;;;;8.07;5.00;;;;;;;23.71;46.72;94478.00;5087933;28;20031;-76
2023/06/11 07:24:51;;;;;;;8.20;4.65;;;;;;;23.82;46.57;94472.19;5088566;28;20028;-76
2023/06/11 07:27:17;;;;;;;10.02;5.00;;;;;;;23.93;45.81;94462.84;5087726;28;20027;-78
2023/06/11 07:29:42;;;;;;;6.32;4.55;;;;;;;24.08;46.05;94463.81;5084534;28;20406;-75
2023/06/11 07:32:08;;;;;;;6.68;4.78;;;;;;;24.14;45.56;94469.31;5087351;28;20020;-75
2023/06/11 07:34:33;;;;;;;5.38;4.30;;;;;;;24.23;45.29;94468.91;5085756;28;20020;-77
2023/06/11 07:36:59;;;;;;;9.02;4.88;;;;;;;24.31;44.86;94466.22;5087367;28;20035;-77
2023/06/11 07:39:25;;;;;;;6.43;4.53;;;;;;;24.37;45.07;94464.09;5085572;28;20020;-77
2023/06/11 07:41:51;;;;;;;7.05;4.47;;;;;;;24.47;45.04;94470.03;5085484;28;20059;-75
2023/06/11 07:44:16;;;;;;;8.27;4.95;;;;;;;24.57;44.78;94469.06;5086755;28;20088;-76
2023/06/11 07:46:44;;;;;;;7.45;4.70;;;;;;;24.63;44.48;94468.97;5086839;28;20019;-76
2023/06/11 07:49:10;;;;;;;7.25;4.95;;;;;;;24.71;43.68;94463.44;5085792;28;20127;-76
2023/06/11 07:51:36;;;;;;;10.55;5.00;;;;;;;24.76;43.39;94459.75;5085522;28;20483;-76
2023/06/11 07:54:04;;;;;;;6.90;5.20;;;;;;;24.85;43.56;94451.66;5085223;28;20479;-78
2023/06/11 07:56:30;;;;;;;6.68;4.93;;;;;;;24.89;42.56;94451.31;5086576;28;20027;-77
2023/06/11 07:58:55;;;;;;;5.82;4.30;;;;;;;25.04;42.44;94456.38;5087090;28;20032;-76
2023/06/11 08:01:21;;;;;;;7.00;4.43;;;;;;;25.15;42.15;94453.34;5085908;28;20032;-78
2023/06/11 08:03:46;;;;;;;5.55;4.22;;;;;;;25.29;42.00;94456.84;5083362;28;20055;-77
2023/06/11 08:06:11;;;;;;;5.40;4.22;;;;;;;25.42;41.96;94462.47;5086299;28;20036;-77
2023/06/11 08:08:37;;;;;;;6.90;4.32;;;;;;;25.58;41.23;94455.69;5085573;28;20017;-77
2023/06/11 08:11:02;;;;;;;6.50;4.25;;;;;;;25.76;40.50;94458.88;5086666;28;20028;-77
2023/06/11 08:13:27;;;;;;;6.22;4.82;;;;;;;25.90;41.11;94455.44;5086901;28;20032;-77
2023/06/11 08:15:53;;;;;;;9.30;4.80;;;;;;;25.91;41.18;94453.38;5087665;28;20505;-78
2023/06/11 08:18:19;;;;;;;6.70;4.53;;;;;;;26.08;40.90;94445.25;5085233;28;20399;-77
2023/06/11 08:20:45;;;;;;;7.20;4.65;;;;;;;26.17;41.25;94456.03;5084944;28;20034;-77
2023/06/11 08:23:12;;;;;;;5.13;4.63;;;;;;;26.31;39.57;94453.84;5086043;28;20421;-77
2023/06/11 08:25:38;;;;;;;6.18;4.82;;;;;;;26.39;39.34;94451.13;5085947;28;20029;-78
2023/06/11 08:28:03;;;;;;;6.53;4.60;;;;;;;26.55;39.19;94443.50;5088819;28;20028;-78
2023/06/11 08:30:29;;;;;;;6.00;4.70;;;;;;;26.64;37.45;94446.59;5085047;28;20043;-78
2023/06/11 08:32:55;;;;;;;9.23;5.05;;;;;;;26.38;37.36;94441.91;5085049;28;20042;-77
2023/06/11 08:35:20;;;;;;;7.50;4.18;;;;;;;26.37;37.33;94442.44;5084631;28;20020;-78
2023/06/11 08:37:46;;;;;;;7.90;4.80;;;;;;;26.61;37.87;94441.28;5084591;28;20031;-78
2023/06/11 08:40:12;;;;;;;6.80;4.47;;;;;;;26.58;37.63;94437.53;5085167;28;20020;-77
2023/06/11 08:42:37;;;;;;;8.27;4.85;;;;;;;26.25;38.18;94444.06;5067610;28;20044;-78
2023/06/11 08:45:03;;;;;;;9.68;4.30;;;;;;;26.35;38.47;94445.06;5084331;28;20046;-77
2023/06/11 08:47:33;;;;;;;8.13;4.57;;;;;;;26.68;38.77;94437.78;5084849;28;20520;-77
2023/06/11 08:49:59;;;;;;;8.00;4.90;;;;;;;26.92;38.13;94442.22;5084412;28;20122;-78
2023/06/11 08:52:26;;;;;;;7.05;4.35;;;;;;;26.97;37.32;94438.47;5089855;28;20024;-78
2023/06/11 08:54:52;;;;;;;6.75;4.63;;;;;;;27.00;37.34;94440.91;5084825;28;20032;-78
2023/06/11 08:57:19;;;;;;;6.25;4.10;;;;;;;27.12;37.42;94440.63;5083999;28;20038;-78
2023/06/11 08:59:44;;;;;;;6.72;4.60;;;;;;;27.26;36.96;94445.56;5084457;28;20322;-77
2023/06/11 09:02:09;;;;;;;7.03;4.90;;;;;;;27.36;37.34;94433.75;5084363;28;20102;-77
2023/06/11 09:04:35;;;;;;;6.93;3.80;;;;;;;27.44;36.83;94443.72;5084320;28;20058;-77
2023/06/11 09:07:01;;;;;;;5.20;4.05;;;;;;;27.59;36.33;94436.63;5085461;28;20040;-77
2023/06/11 09:09:26;;;;;;;7.78;4.72;;;;;;;27.69;36.18;94429.09;5085615;28;20077;-77
2023/06/11 09:11:52;;;;;;;6.22;4.63;;;;;;;27.84;36.21;94428.41;5067556;28;20024;-78
2023/06/11 09:14:19;;;;;;;6.72;4.65;;;;;;;27.94;34.74;94424.44;5084711;28;20197;-77
2023/06/11 09:16:46;;;;;;;5.43;3.95;;;;;;;28.11;34.52;94418.22;5085405;28;20020;-77
2023/06/11 09:19:15;;;;;;;4.63;3.83;;;;;;;28.25;34.52;94425.19;5083648;28;20024;-77
2023/06/11 09:21:56;;;;;;;6.85;4.60;;;;;;;28.44;34.05;94418.38;5067555;28;20031;-78
2023/06/11 09:24:23;;;;;;;5.25;3.85;;;;;;;28.31;34.51;94419.31;5067040;28;20032;-77
2023/06/11 09:26:57;;;;;;;7.78;4.63;;;;;;;28.35;33.21;94414.09;5086042;28;20032;-77
2023/06/11 09:29:25;;;;;;;6.40;4.43;;;;;;;28.21;33.45;94410.66;5092874;28;20024;-77
2023/06/11 09:32:02;;;;;;;19.08;5.63;;;;;;;28.30;31.69;94398.03;5088571;28;20032;-78
2023/06/11 09:34:28;;;;;;;6.80;4.55;;;;;;;28.15;32.20;94409.34;5086991;28;20032;-76
2023/06/11 09:36:53;;;;;;;8.15;4.78;;;;;;;28.22;31.97;94411.44;5084153;28;20026;-78
2023/06/11 09:39:19;;;;;;;9.07;4.68;;;;;;;28.41;32.06;94400.50;5085493;28;20035;-78
2023/06/11 09:41:48;;;;;;;7.63;5.10;;;;;;;28.10;31.85;94404.66;5067009;28;20028;-78
2023/06/11 09:44:15;;;;;;;6.95;4.53;;;;;;;28.18;31.94;94403.34;5087505;28;20040;-77
2023/06/11 09:46:41;;;;;;;6.20;4.72;;;;;;;28.29;31.92;94410.69;5087412;28;20042;-78
2023/06/11 09:49:08;;;;;;;5.47;4.50;;;;;;;28.47;31.50;94403.13;5083245;28;20035;-79
2023/06/11 09:51:35;;;;;;;5.82;3.80;;;;;;;28.35;30.69;94410.50;5084181;28;20044;-78
2023/06/11 09:54:02;;;;;;;6.57;4.57;;;;;;;28.34;29.20;94400.53;5087649;28;20036;-76
2023/06/11 09:56:28;;;;;;;5.55;4.25;;;;;;;28.37;30.30;94402.94;5087541;28;20481;-78
2023/06/11 09:58:56;;;;;;;7.82;4.95;;;;;;;28.55;30.98;94398.19;5087451;28;20115;-78
2023/06/11 10:01:24;;;;;;;7.88;4.25;;;;;;;28.50;29.62;94407.63;5087541;28;20031;-76
2023/06/11 10:03:50;;;;;;;6.95;4.43;;;;;;;28.73;29.57;94402.69;5089432;28;20058;-77
2023/06/11 10:06:19;;;;;;;6.35;4.65;;;;;;;29.01;29.30;94393.16;5088051;28;20067;-77
2023/06/11 10:08:48;;;;;;;6.10;4.35;;;;;;;29.13;29.88;94389.91;5089030;28;20456;-77
2023/06/11 10:11:14;;;;;;;7.25;4.35;;;;;;;29.33;30.45;94395.25;5087097;28;20028;-77
2023/06/11 10:13:40;;;;;;;9.02;4.80;;;;;;;29.55;29.20;94390.81;5087421;28;20099;-78
2023/06/11 10:16:09;;;;;;;6.13;3.83;;;;;;;29.65;28.01;94390.97;5070517;28;20435;-78
2023/06/11 10:18:34;;;;;;;6.72;4.05;;;;;;;29.34;26.99;94391.09;5087812;28;20055;-78
2023/06/11 10:21:01;;;;;;;5.55;3.90;;;;;;;29.46;27.67;94387.81;5091400;28;20019;-78
2023/06/11 10:23:42;;;;;;;6.65;4.30;;;;;;;29.81;27.58;94383.06;5088429;28;20024;-78
2023/06/11 10:26:11;;;;;;;6.50;4.35;;;;;;;29.54;27.64;94375.16;5087423;28;20111;-78
2023/06/11 10:28:49;;;;;;;6.28;4.32;;;;;;;29.71;28.32;94377.31;5087269;28;20020;-77
2023/06/11 10:31:25;;;;;;;5.55;3.95;;;;;;;29.93;28.49;94375.59;5094306;28;20052;-77
2023/06/11 10:33:51;;;;;;;6.30;4.20;;;;;;;29.78;26.96;94368.00;5090157;28;20047;-77
2023/06/11 10:36:23;;;;;;;7.65;4.15;;;;;;;30.12;27.76;94367.34;5088701;28;20477;-77
2023/06/11 10:38:48;;;;;;;4.95;3.63;;;;;;;30.32;26.35;94364.69;5096572;28;20498;-77
2023/06/11 10:41:13;;;;;;;6.57;4.20;;;;;;;30.54;26.28;94358.03;5086926;28;20089;-76
2023/06/11 10:43:40;;;;;;;6.03;3.83;;;;;;;30.74;25.26;94353.31;5088082;28;20103;-78
2023/06/11 10:46:12;;;;;;;5.05;4.18;;;;;;;30.98;25.62;94359.47;5088134;28;20081;-77
2023/06/11 10:48:48;;;;;;;6.10;3.65;;;;;;;30.92;25.99;94368.22;5088330;28;20506;-77
2023/06/11 10:51:14;;;;;;;6.20;4.10;;;;;;;30.65;25.65;94363.22;5087399;28;20050;-78
2023/06/11 10:53:40;;;;;;;4.57;4.07;;;;;;;30.85;26.39;94358.47;5087641;28;20559;-79
2023/06/11 10:56:06;;;;;;;6.38;4.35;;;;;;;30.94;26.60;94357.03;5088311;28;20096;-78
2023/06/11 10:58:33;;;;;;;5.93;3.40;;;;;;;30.94;26.53;94354.94;5087512;28;20024;-78
2023/06/11 11:00:58;;;;;;;7.82;4.15;;;;;;;31.20;25.70;94353.47;5086569;28;20028;-78
2023/06/11 11:03:29;;;;;;;5.68;4.22;;;;;;;31.35;25.92;94344.00;5087203;28;20035;-78
2023/06/11 11:05:55;;;;;;;5.13;3.92;;;;;;;31.48;25.77;94348.53;5087744;28;20044;-78
2023/06/11 11:08:21;;;;;;;6.00;4.13;;;;;;;31.53;25.84;94346.78;5087569;28;20024;-78
2023/06/11 11:10:46;;;;;;;11.38;4.32;;;;;;;31.72;25.82;94338.34;5086064;28;20035;-79
2023/06/11 11:13:12;;;;;;;5.53;4.05;;;;;;;31.94;25.37;94345.78;5086382;28;20464;-79
2023/06/11 11:15:37;;;;;;;5.28;4.07;;;;;;;31.80;26.18;94341.84;5087514;28;20028;-78
2023/06/11 11:18:03;;;;;;;6.25;4.38;;;;;;;31.92;26.81;94342.78;5087405;28;20543;-78
2023/06/11 11:20:31;;;;;;;7.45;4.38;;;;;;;31.75;27.07;94342.84;5087495;28;20065;-78
2023/06/11 11:22:57;;;;;;;6.03;4.57;;;;;;;31.94;26.38;94348.63;5086413;28;20525;-77
2023/06/11 11:25:30;;;;;;;7.97;4.60;;;;;;;31.84;26.80;94344.25;5087226;28;20029;-77
2023/06/11 11:27:56;;;;;;;7.50;4.53;;;;;;;31.62;26.33;94343.25;5086246;28;20074;-77
2023/06/11 11:30:24;;;;;;;8.20;5.22;;;;;;;31.48;26.48;94331.50;5091551;28;20020;-77
2023/06/11 11:32:51;;;;;;;8.68;4.82;;;;;;;31.24;26.74;94332.41;5092118;28;20085;-77